This is the latest recevied weather packets stored in our database for station/object PY2VE-13. If no packets are shown the sender has not sent any weather packets the latest 10 day(s).
| Time | Temp. | Humidity | Pressure | Rain* | Wind** | Luminosity | Snow |
|---|---|---|---|---|---|---|---|
| 1777442616 | 25° C | 70% | 1019.7 hPa | - | - | - | - |
| 1777441716 | 25° C | 71% | 1019.9 hPa | - | - | - | - |
| 1777440816 | 23.89° C | 74% | 1020.2 hPa | - | - | - | - |
| 1777439916 | 23.89° C | 75% | 1020.4 hPa | - | - | - | - |
| 1777439016 | 23.89° C | 75% | 1020.6 hPa | - | - | - | - |
| 1777438116 | 23.89° C | 73% | 1020.6 hPa | - | - | - | - |
| 1777437216 | 25° C | 68% | 1020.4 hPa | - | - | - | - |
| 1777436316 | 24.44° C | 71% | 1020.6 hPa | - | - | - | - |
| 1777435416 | 24.44° C | 71% | 1020.8 hPa | - | - | - | - |
| 1777434516 | 25° C | 68% | 1020.5 hPa | - | - | - | - |
| 1777433611 | 23.89° C | 73% | 1021 hPa | - | - | - | - |
| 1777432716 | 23.33° C | 74% | 1021.3 hPa | - | - | - | - |
| 1777431816 | 23.89° C | 72% | 1021.1 hPa | - | - | - | - |
| 1777430916 | 23.33° C | 74% | 1021.3 hPa | - | - | - | - |
| 1777430016 | 24.44° C | 70% | 1021.2 hPa | - | - | - | - |
| 1777429116 | 25° C | 67% | 1021.2 hPa | - | - | - | - |
| 1777428216 | 25.56° C | 64% | 1021 hPa | - | - | - | - |
| 1777427316 | 27.22° C | 59% | 1020.4 hPa | - | - | - | - |
| 1777426415 | 27.22° C | 59% | 1020.4 hPa | - | - | - | - |
| 1777425515 | 26.11° C | 62% | 1020.6 hPa | - | - | - | - |
| 1777424615 | 26.67° C | 60% | 1020.4 hPa | - | - | - | - |
| 1777423715 | 27.78° C | 55% | 1020.1 hPa | - | - | - | - |
| 1777422815 | 28.33° C | 54% | 1020 hPa | - | - | - | - |
| 1777421915 | 27.78° C | 56% | 1020.2 hPa | - | - | - | - |
| 1777421015 | 27.78° C | 57% | 1020.2 hPa | - | - | - | - |
* Rain since midnight (hover to see other rain measurements)
** Current wind speed in m/s (hover to see current wind gust speed)